sensor_id;sensor_type;location;lat;lon;timestamp;temperature;humidity
51908;DHT22;39320;53.214;6.556;2023-11-19T00:00:00;10.50;99.90
51908;DHT22;39320;53.214;6.556;2023-11-19T00:02:26;10.50;99.90
51908;DHT22;39320;53.214;6.556;2023-11-19T00:04:52;10.60;99.90
51908;DHT22;39320;53.214;6.556;2023-11-19T00:07:18;10.60;99.90
51908;DHT22;39320;53.214;6.556;2023-11-19T00:09:45;10.70;99.90
51908;DHT22;39320;53.214;6.556;2023-11-19T00:12:11;10.70;99.90
51908;DHT22;39320;53.214;6.556;2023-11-19T00:14:37;10.80;99.90
51908;DHT22;39320;53.214;6.556;2023-11-19T00:17:02;10.80;99.90
51908;DHT22;39320;53.214;6.556;2023-11-19T00:19:29;10.80;99.90
51908;DHT22;39320;53.214;6.556;2023-11-19T00:21:55;10.80;99.90
51908;DHT22;39320;53.214;6.556;2023-11-19T00:24:21;10.90;99.90
51908;DHT22;39320;53.214;6.556;2023-11-19T00:26:46;11.00;99.90
51908;DHT22;39320;53.214;6.556;2023-11-19T00:29:12;11.10;99.90
51908;DHT22;39320;53.214;6.556;2023-11-19T00:31:39;11.10;99.90
51908;DHT22;39320;53.214;6.556;2023-11-19T00:34:05;11.10;99.90
51908;DHT22;39320;53.214;6.556;2023-11-19T00:36:32;11.20;99.90
51908;DHT22;39320;53.214;6.556;2023-11-19T00:38:57;11.30;99.90
51908;DHT22;39320;53.214;6.556;2023-11-19T00:41:23;11.30;99.90
51908;DHT22;39320;53.214;6.556;2023-11-19T00:43:51;11.30;99.90
51908;DHT22;39320;53.214;6.556;2023-11-19T00:46:16;11.40;99.90
51908;DHT22;39320;53.214;6.556;2023-11-19T00:48:42;11.40;99.90
51908;DHT22;39320;53.214;6.556;2023-11-19T00:51:08;11.40;99.90
51908;DHT22;39320;53.214;6.556;2023-11-19T00:53:33;11.40;99.90
51908;DHT22;39320;53.214;6.556;2023-11-19T00:55:59;11.40;99.90
51908;DHT22;39320;53.214;6.556;2023-11-19T00:58:25;11.50;99.90
51908;DHT22;39320;53.214;6.556;2023-11-19T01:00:52;11.50;99.90
51908;DHT22;39320;53.214;6.556;2023-11-19T01:03:18;11.60;99.90
51908;DHT22;39320;53.214;6.556;2023-11-19T01:05:43;11.60;99.90
51908;DHT22;39320;53.214;6.556;2023-11-19T01:08:10;11.60;99.90
51908;DHT22;39320;53.214;6.556;2023-11-19T01:10:39;11.60;99.90
51908;DHT22;39320;53.214;6.556;2023-11-19T01:13:05;11.60;99.90
51908;DHT22;39320;53.214;6.556;2023-11-19T01:15:33;11.70;99.90
51908;DHT22;39320;53.214;6.556;2023-11-19T01:17:59;11.70;99.90
51908;DHT22;39320;53.214;6.556;2023-11-19T01:20:25;11.80;99.90
51908;DHT22;39320;53.214;6.556;2023-11-19T01:22:52;11.80;99.90
51908;DHT22;39320;53.214;6.556;2023-11-19T01:25:17;11.80;99.90
51908;DHT22;39320;53.214;6.556;2023-11-19T01:27:43;11.90;99.90
51908;DHT22;39320;53.214;6.556;2023-11-19T01:30:09;11.90;99.90
51908;DHT22;39320;53.214;6.556;2023-11-19T01:32:38;12.00;99.90
51908;DHT22;39320;53.214;6.556;2023-11-19T01:35:05;11.90;99.90
51908;DHT22;39320;53.214;6.556;2023-11-19T01:37:31;11.80;99.90
51908;DHT22;39320;53.214;6.556;2023-11-19T01:39:57;12.00;99.90
51908;DHT22;39320;53.214;6.556;2023-11-19T01:42:23;11.90;99.90
51908;DHT22;39320;53.214;6.556;2023-11-19T01:45:00;12.00;99.90
51908;DHT22;39320;53.214;6.556;2023-11-19T01:47:30;12.00;99.90
51908;DHT22;39320;53.214;6.556;2023-11-19T01:49:57;12.00;99.90
51908;DHT22;39320;53.214;6.556;2023-11-19T01:52:25;12.00;99.90
51908;DHT22;39320;53.214;6.556;2023-11-19T01:54:53;12.00;99.90
51908;DHT22;39320;53.214;6.556;2023-11-19T01:57:21;12.10;99.90
51908;DHT22;39320;53.214;6.556;2023-11-19T01:59:49;12.00;99.90
51908;DHT22;39320;53.214;6.556;2023-11-19T02:02:16;12.00;99.90
51908;DHT22;39320;53.214;6.556;2023-11-19T02:04:47;12.10;99.90
51908;DHT22;39320;53.214;6.556;2023-11-19T02:07:14;12.00;99.90
51908;DHT22;39320;53.214;6.556;2023-11-19T02:09:43;12.00;99.90
51908;DHT22;39320;53.214;6.556;2023-11-19T02:12:09;11.90;99.90
51908;DHT22;39320;53.214;6.556;2023-11-19T02:14:37;11.90;99.90
51908;DHT22;39320;53.214;6.556;2023-11-19T02:17:03;12.00;99.90
51908;DHT22;39320;53.214;6.556;2023-11-19T02:19:29;11.90;99.90
51908;DHT22;39320;53.214;6.556;2023-11-19T02:21:55;12.00;99.90
51908;DHT22;39320;53.214;6.556;2023-11-19T02:24:22;11.90;99.90
51908;DHT22;39320;53.214;6.556;2023-11-19T02:26:52;12.00;99.90
51908;DHT22;39320;53.214;6.556;2023-11-19T02:29:22;11.90;99.90
51908;DHT22;39320;53.214;6.556;2023-11-19T02:31:47;11.90;99.90
51908;DHT22;39320;53.214;6.556;2023-11-19T02:34:13;11.90;99.90
51908;DHT22;39320;53.214;6.556;2023-11-19T02:36:39;12.00;99.90
51908;DHT22;39320;53.214;6.556;2023-11-19T02:39:07;11.90;99.90
51908;DHT22;39320;53.214;6.556;2023-11-19T02:41:36;11.90;99.90
51908;DHT22;39320;53.214;6.556;2023-11-19T02:44:06;11.90;99.90
51908;DHT22;39320;53.214;6.556;2023-11-19T02:46:32;11.90;99.90
51908;DHT22;39320;53.214;6.556;2023-11-19T02:48:57;11.90;99.90
51908;DHT22;39320;53.214;6.556;2023-11-19T02:51:23;12.00;99.90
51908;DHT22;39320;53.214;6.556;2023-11-19T02:53:49;11.90;99.90
51908;DHT22;39320;53.214;6.556;2023-11-19T02:56:15;12.00;99.90
51908;DHT22;39320;53.214;6.556;2023-11-19T02:58:46;11.90;99.90
51908;DHT22;39320;53.214;6.556;2023-11-19T03:01:12;11.90;99.90
51908;DHT22;39320;53.214;6.556;2023-11-19T03:03:44;11.90;99.90
51908;DHT22;39320;53.214;6.556;2023-11-19T03:06:14;11.90;99.90
51908;DHT22;39320;53.214;6.556;2023-11-19T03:08:41;11.90;99.90
51908;DHT22;39320;53.214;6.556;2023-11-19T03:11:08;11.80;99.90
51908;DHT22;39320;53.214;6.556;2023-11-19T03:13:34;11.80;99.90
51908;DHT22;39320;53.214;6.556;2023-11-19T03:16:00;11.90;99.90
51908;DHT22;39320;53.214;6.556;2023-11-19T03:18:25;11.90;99.90
51908;DHT22;39320;53.214;6.556;2023-11-19T03:20:52;11.80;99.90
51908;DHT22;39320;53.214;6.556;2023-11-19T03:23:18;11.80;99.90
51908;DHT22;39320;53.214;6.556;2023-11-19T03:25:44;11.80;99.90
51908;DHT22;39320;53.214;6.556;2023-11-19T03:28:09;11.80;99.90
51908;DHT22;39320;53.214;6.556;2023-11-19T03:30:37;11.80;99.90
51908;DHT22;39320;53.214;6.556;2023-11-19T03:33:02;11.80;99.90
51908;DHT22;39320;53.214;6.556;2023-11-19T03:35:28;11.80;99.90
51908;DHT22;39320;53.214;6.556;2023-11-19T03:37:54;11.80;99.90
51908;DHT22;39320;53.214;6.556;2023-11-19T03:40:20;11.80;99.90
51908;DHT22;39320;53.214;6.556;2023-11-19T03:42:46;11.80;99.90
51908;DHT22;39320;53.214;6.556;2023-11-19T03:45:12;11.90;99.90
51908;DHT22;39320;53.214;6.556;2023-11-19T03:47:38;11.80;99.90
51908;DHT22;39320;53.214;6.556;2023-11-19T03:50:05;11.90;99.90
51908;DHT22;39320;53.214;6.556;2023-11-19T03:52:31;11.80;99.90
51908;DHT22;39320;53.214;6.556;2023-11-19T03:54:57;11.80;99.90
51908;DHT22;39320;53.214;6.556;2023-11-19T03:57:23;11.90;99.90
51908;DHT22;39320;53.214;6.556;2023-11-19T03:59:49;11.90;99.90
51908;DHT22;39320;53.214;6.556;2023-11-19T04:02:15;12.70;99.90
51908;DHT22;39320;53.214;6.556;2023-11-19T04:04:41;11.90;99.90
51908;DHT22;39320;53.214;6.556;2023-11-19T04:07:07;11.90;99.90
51908;DHT22;39320;53.214;6.556;2023-11-19T04:09:33;11.90;99.90
51908;DHT22;39320;53.214;6.556;2023-11-19T04:12:00;11.90;99.90
51908;DHT22;39320;53.214;6.556;2023-11-19T04:14:26;11.90;99.90
51908;DHT22;39320;53.214;6.556;2023-11-19T04:16:52;11.80;99.90
51908;DHT22;39320;53.214;6.556;2023-11-19T04:19:19;11.90;99.90
51908;DHT22;39320;53.214;6.556;2023-11-19T04:21:45;11.90;99.90
51908;DHT22;39320;53.214;6.556;2023-11-19T04:24:14;11.90;99.90
51908;DHT22;39320;53.214;6.556;2023-11-19T04:26:44;11.90;99.90
51908;DHT22;39320;53.214;6.556;2023-11-19T04:29:12;11.90;99.90
51908;DHT22;39320;53.214;6.556;2023-11-19T04:31:38;11.90;99.90
51908;DHT22;39320;53.214;6.556;2023-11-19T04:34:05;11.90;99.90
51908;DHT22;39320;53.214;6.556;2023-11-19T04:36:32;11.90;99.90
51908;DHT22;39320;53.214;6.556;2023-11-19T04:38:59;11.90;99.90
51908;DHT22;39320;53.214;6.556;2023-11-19T04:41:26;11.90;99.90
51908;DHT22;39320;53.214;6.556;2023-11-19T04:43:53;12.00;99.90
51908;DHT22;39320;53.214;6.556;2023-11-19T04:46:19;11.90;99.90
51908;DHT22;39320;53.214;6.556;2023-11-19T04:48:45;11.90;99.90
51908;DHT22;39320;53.214;6.556;2023-11-19T04:51:11;11.90;99.90
51908;DHT22;39320;53.214;6.556;2023-11-19T04:53:36;12.00;99.90
51908;DHT22;39320;53.214;6.556;2023-11-19T04:56:11;12.00;99.90
51908;DHT22;39320;53.214;6.556;2023-11-19T04:58:39;12.00;99.90
51908;DHT22;39320;53.214;6.556;2023-11-19T05:01:05;12.00;99.90
51908;DHT22;39320;53.214;6.556;2023-11-19T05:03:32;12.00;99.90
51908;DHT22;39320;53.214;6.556;2023-11-19T05:05:58;12.00;99.90
51908;DHT22;39320;53.214;6.556;2023-11-19T05:08:24;12.00;99.90
51908;DHT22;39320;53.214;6.556;2023-11-19T05:10:50;12.10;99.90
51908;DHT22;39320;53.214;6.556;2023-11-19T05:13:16;12.10;99.90
51908;DHT22;39320;53.214;6.556;2023-11-19T05:15:42;12.10;99.90
51908;DHT22;39320;53.214;6.556;2023-11-19T05:18:08;12.10;99.90
51908;DHT22;39320;53.214;6.556;2023-11-19T05:20:34;12.10;99.90
51908;DHT22;39320;53.214;6.556;2023-11-19T05:23:00;12.10;99.90
51908;DHT22;39320;53.214;6.556;2023-11-19T05:25:26;12.00;99.90
51908;DHT22;39320;53.214;6.556;2023-11-19T05:27:53;12.10;99.90
51908;DHT22;39320;53.214;6.556;2023-11-19T05:30:18;12.00;99.90
51908;DHT22;39320;53.214;6.556;2023-11-19T05:32:44;12.00;99.90
51908;DHT22;39320;53.214;6.556;2023-11-19T05:35:11;12.00;99.90
51908;DHT22;39320;53.214;6.556;2023-11-19T05:37:36;12.10;99.90
51908;DHT22;39320;53.214;6.556;2023-11-19T05:40:02;12.10;99.90
51908;DHT22;39320;53.214;6.556;2023-11-19T05:42:30;12.00;99.90
51908;DHT22;39320;53.214;6.556;2023-11-19T05:44:55;12.10;99.90
51908;DHT22;39320;53.214;6.556;2023-11-19T05:47:21;12.10;99.90
51908;DHT22;39320;53.214;6.556;2023-11-19T05:49:47;12.00;99.90
51908;DHT22;39320;53.214;6.556;2023-11-19T05:52:13;12.00;99.90
51908;DHT22;39320;53.214;6.556;2023-11-19T05:54:39;12.00;99.90
51908;DHT22;39320;53.214;6.556;2023-11-19T05:57:05;11.90;99.90
51908;DHT22;39320;53.214;6.556;2023-11-19T05:59:30;11.90;99.90
51908;DHT22;39320;53.214;6.556;2023-11-19T06:01:58;11.90;99.90
51908;DHT22;39320;53.214;6.556;2023-11-19T06:04:24;11.90;99.90
51908;DHT22;39320;53.214;6.556;2023-11-19T06:06:50;11.90;99.90
51908;DHT22;39320;53.214;6.556;2023-11-19T06:09:15;11.80;99.90
51908;DHT22;39320;53.214;6.556;2023-11-19T06:11:44;11.80;99.90
51908;DHT22;39320;53.214;6.556;2023-11-19T06:14:10;11.80;99.90
51908;DHT22;39320;53.214;6.556;2023-11-19T06:16:36;11.80;99.90
51908;DHT22;39320;53.214;6.556;2023-11-19T06:19:05;11.80;99.90
51908;DHT22;39320;53.214;6.556;2023-11-19T06:21:30;11.80;99.90
51908;DHT22;39320;53.214;6.556;2023-11-19T06:23:56;11.70;99.90
51908;DHT22;39320;53.214;6.556;2023-11-19T06:26:22;11.70;99.90
51908;DHT22;39320;53.214;6.556;2023-11-19T06:28:48;11.70;99.90
51908;DHT22;39320;53.214;6.556;2023-11-19T06:31:14;11.70;99.90
51908;DHT22;39320;53.214;6.556;2023-11-19T06:33:42;11.70;99.90
51908;DHT22;39320;53.214;6.556;2023-11-19T06:36:08;11.70;99.90
51908;DHT22;39320;53.214;6.556;2023-11-19T06:38:35;11.70;99.90
51908;DHT22;39320;53.214;6.556;2023-11-19T06:41:01;11.70;99.90
51908;DHT22;39320;53.214;6.556;2023-11-19T06:43:27;11.70;99.90
51908;DHT22;39320;53.214;6.556;2023-11-19T06:45:54;11.60;99.90
51908;DHT22;39320;53.214;6.556;2023-11-19T06:48:20;11.60;99.90
51908;DHT22;39320;53.214;6.556;2023-11-19T06:50:45;11.60;99.90
51908;DHT22;39320;53.214;6.556;2023-11-19T06:53:11;11.60;99.90
51908;DHT22;39320;53.214;6.556;2023-11-19T06:55:37;11.60;99.90
51908;DHT22;39320;53.214;6.556;2023-11-19T06:58:03;11.60;99.90
51908;DHT22;39320;53.214;6.556;2023-11-19T07:00:29;11.60;99.90
51908;DHT22;39320;53.214;6.556;2023-11-19T07:02:59;11.60;99.90
51908;DHT22;39320;53.214;6.556;2023-11-19T07:05:25;11.50;99.90
51908;DHT22;39320;53.214;6.556;2023-11-19T07:07:51;11.50;99.90
51908;DHT22;39320;53.214;6.556;2023-11-19T07:10:17;11.50;99.90
51908;DHT22;39320;53.214;6.556;2023-11-19T07:12:44;11.50;99.90
51908;DHT22;39320;53.214;6.556;2023-11-19T07:15:10;11.50;99.90
51908;DHT22;39320;53.214;6.556;2023-11-19T07:17:38;11.50;99.90
51908;DHT22;39320;53.214;6.556;2023-11-19T07:20:05;11.50;99.90
51908;DHT22;39320;53.214;6.556;2023-11-19T07:22:31;11.40;99.90
51908;DHT22;39320;53.214;6.556;2023-11-19T07:24:57;11.40;99.90
51908;DHT22;39320;53.214;6.556;2023-11-19T07:27:24;11.40;99.90
51908;DHT22;39320;53.214;6.556;2023-11-19T07:29:49;11.40;99.90
51908;DHT22;39320;53.214;6.556;2023-11-19T07:32:15;11.40;99.90
51908;DHT22;39320;53.214;6.556;2023-11-19T07:34:41;11.40;99.90
51908;DHT22;39320;53.214;6.556;2023-11-19T07:37:07;11.40;99.90
51908;DHT22;39320;53.214;6.556;2023-11-19T07:39:32;11.40;99.90
51908;DHT22;39320;53.214;6.556;2023-11-19T07:41:59;11.40;99.90
51908;DHT22;39320;53.214;6.556;2023-11-19T07:44:25;11.40;99.90
51908;DHT22;39320;53.214;6.556;2023-11-19T07:46:51;11.40;99.90
51908;DHT22;39320;53.214;6.556;2023-11-19T07:49:17;11.40;99.90
51908;DHT22;39320;53.214;6.556;2023-11-19T07:51:43;11.40;99.90
51908;DHT22;39320;53.214;6.556;2023-11-19T07:54:08;11.40;99.90
51908;DHT22;39320;53.214;6.556;2023-11-19T07:56:34;11.40;99.90
51908;DHT22;39320;53.214;6.556;2023-11-19T07:59:04;11.40;99.90
51908;DHT22;39320;53.214;6.556;2023-11-19T08:01:29;11.40;99.90
51908;DHT22;39320;53.214;6.556;2023-11-19T08:03:55;11.40;99.90
51908;DHT22;39320;53.214;6.556;2023-11-19T08:06:21;11.40;99.90
51908;DHT22;39320;53.214;6.556;2023-11-19T08:08:47;11.40;99.90
51908;DHT22;39320;53.214;6.556;2023-11-19T08:11:14;11.40;99.90
51908;DHT22;39320;53.214;6.556;2023-11-19T08:13:40;11.50;99.90
51908;DHT22;39320;53.214;6.556;2023-11-19T08:16:07;11.50;99.90
51908;DHT22;39320;53.214;6.556;2023-11-19T08:18:33;11.50;99.90
51908;DHT22;39320;53.214;6.556;2023-11-19T08:20:59;11.50;99.90
51908;DHT22;39320;53.214;6.556;2023-11-19T08:23:26;11.50;99.90
51908;DHT22;39320;53.214;6.556;2023-11-19T08:25:54;11.50;99.90
51908;DHT22;39320;53.214;6.556;2023-11-19T08:28:20;11.50;99.90
51908;DHT22;39320;53.214;6.556;2023-11-19T08:30:46;11.50;99.90
51908;DHT22;39320;53.214;6.556;2023-11-19T08:33:11;11.50;99.90
51908;DHT22;39320;53.214;6.556;2023-11-19T08:35:37;11.50;99.90
51908;DHT22;39320;53.214;6.556;2023-11-19T08:38:03;11.50;99.90
51908;DHT22;39320;53.214;6.556;2023-11-19T08:40:29;11.50;99.90
51908;DHT22;39320;53.214;6.556;2023-11-19T08:42:57;11.50;99.90
51908;DHT22;39320;53.214;6.556;2023-11-19T08:45:23;11.50;99.90
51908;DHT22;39320;53.214;6.556;2023-11-19T08:47:49;11.50;99.90
51908;DHT22;39320;53.214;6.556;2023-11-19T08:50:15;11.50;99.90
51908;DHT22;39320;53.214;6.556;2023-11-19T08:52:40;11.50;99.90
51908;DHT22;39320;53.214;6.556;2023-11-19T08:55:09;11.50;99.90
51908;DHT22;39320;53.214;6.556;2023-11-19T08:57:35;11.50;99.90
51908;DHT22;39320;53.214;6.556;2023-11-19T09:00:02;11.50;99.90
51908;DHT22;39320;53.214;6.556;2023-11-19T09:02:33;11.50;99.90
51908;DHT22;39320;53.214;6.556;2023-11-19T09:04:59;11.50;99.90
51908;DHT22;39320;53.214;6.556;2023-11-19T09:07:25;11.50;99.90
51908;DHT22;39320;53.214;6.556;2023-11-19T09:09:56;11.50;99.90
51908;DHT22;39320;53.214;6.556;2023-11-19T09:12:22;11.50;99.90
51908;DHT22;39320;53.214;6.556;2023-11-19T09:14:48;11.60;99.90
51908;DHT22;39320;53.214;6.556;2023-11-19T09:17:14;11.60;99.90
51908;DHT22;39320;53.214;6.556;2023-11-19T09:19:41;11.60;99.90
51908;DHT22;39320;53.214;6.556;2023-11-19T09:22:07;11.60;99.90
51908;DHT22;39320;53.214;6.556;2023-11-19T09:24:33;11.60;99.90
51908;DHT22;39320;53.214;6.556;2023-11-19T09:27:02;11.60;99.90
51908;DHT22;39320;53.214;6.556;2023-11-19T09:29:27;11.60;99.90
51908;DHT22;39320;53.214;6.556;2023-11-19T09:31:53;11.60;99.90
51908;DHT22;39320;53.214;6.556;2023-11-19T09:34:19;11.70;99.90
51908;DHT22;39320;53.214;6.556;2023-11-19T09:36:45;11.60;99.90
51908;DHT22;39320;53.214;6.556;2023-11-19T09:39:11;11.70;99.90
51908;DHT22;39320;53.214;6.556;2023-11-19T09:41:40;11.60;99.90
51908;DHT22;39320;53.214;6.556;2023-11-19T09:44:08;11.70;99.90
51908;DHT22;39320;53.214;6.556;2023-11-19T09:46:35;11.70;99.90
51908;DHT22;39320;53.214;6.556;2023-11-19T09:49:02;11.70;99.90
51908;DHT22;39320;53.214;6.556;2023-11-19T09:51:29;11.70;99.90
51908;DHT22;39320;53.214;6.556;2023-11-19T09:53:55;11.70;99.90
51908;DHT22;39320;53.214;6.556;2023-11-19T09:56:21;11.80;99.90
51908;DHT22;39320;53.214;6.556;2023-11-19T09:58:48;11.80;99.90
51908;DHT22;39320;53.214;6.556;2023-11-19T10:01:14;11.90;99.90
51908;DHT22;39320;53.214;6.556;2023-11-19T10:03:41;11.90;99.90
51908;DHT22;39320;53.214;6.556;2023-11-19T10:06:10;11.90;99.90
51908;DHT22;39320;53.214;6.556;2023-11-19T10:08:39;12.00;99.90
51908;DHT22;39320;53.214;6.556;2023-11-19T10:11:09;12.00;99.90
51908;DHT22;39320;53.214;6.556;2023-11-19T10:13:37;12.00;99.90
51908;DHT22;39320;53.214;6.556;2023-11-19T10:16:12;12.00;99.90
51908;DHT22;39320;53.214;6.556;2023-11-19T10:18:44;12.00;99.90
51908;DHT22;39320;53.214;6.556;2023-11-19T10:21:12;12.00;99.90
51908;DHT22;39320;53.214;6.556;2023-11-19T10:23:52;12.10;99.90
51908;DHT22;39320;53.214;6.556;2023-11-19T10:26:20;12.10;99.90
51908;DHT22;39320;53.214;6.556;2023-11-19T10:28:47;12.10;99.90
51908;DHT22;39320;53.214;6.556;2023-11-19T10:31:14;12.10;99.90
51908;DHT22;39320;53.214;6.556;2023-11-19T10:33:40;12.10;99.90
51908;DHT22;39320;53.214;6.556;2023-11-19T10:36:06;12.00;99.90
51908;DHT22;39320;53.214;6.556;2023-11-19T10:38:32;12.10;99.90
51908;DHT22;39320;53.214;6.556;2023-11-19T10:40:59;12.00;99.90
51908;DHT22;39320;53.214;6.556;2023-11-19T10:43:25;12.10;99.90
51908;DHT22;39320;53.214;6.556;2023-11-19T10:45:52;12.00;99.90
51908;DHT22;39320;53.214;6.556;2023-11-19T10:48:18;12.00;99.90
51908;DHT22;39320;53.214;6.556;2023-11-19T10:50:45;12.00;99.90
51908;DHT22;39320;53.214;6.556;2023-11-19T10:53:12;12.00;99.90
51908;DHT22;39320;53.214;6.556;2023-11-19T10:55:47;12.00;99.90
51908;DHT22;39320;53.214;6.556;2023-11-19T10:58:15;12.00;99.90
51908;DHT22;39320;53.214;6.556;2023-11-19T11:00:51;12.00;99.90
51908;DHT22;39320;53.214;6.556;2023-11-19T11:03:22;12.10;99.90
51908;DHT22;39320;53.214;6.556;2023-11-19T11:05:51;12.10;99.90
51908;DHT22;39320;53.214;6.556;2023-11-19T11:08:18;12.20;99.90
51908;DHT22;39320;53.214;6.556;2023-11-19T11:10:54;12.20;99.90
51908;DHT22;39320;53.214;6.556;2023-11-19T11:13:22;12.20;99.90
51908;DHT22;39320;53.214;6.556;2023-11-19T11:15:50;12.20;99.90
51908;DHT22;39320;53.214;6.556;2023-11-19T11:18:17;12.20;99.90
51908;DHT22;39320;53.214;6.556;2023-11-19T11:20:47;12.20;99.90
51908;DHT22;39320;53.214;6.556;2023-11-19T11:28:52;12.20;99.90
51908;DHT22;39320;53.214;6.556;2023-11-19T11:39:28;12.10;99.90
51908;DHT22;39320;53.214;6.556;2023-11-19T11:45:06;12.10;99.90
51908;DHT22;39320;53.214;6.556;2023-11-19T11:50:35;12.30;99.90
51908;DHT22;39320;53.214;6.556;2023-11-19T11:55:36;12.30;99.90
51908;DHT22;39320;53.214;6.556;2023-11-19T11:58:05;12.30;99.90
51908;DHT22;39320;53.214;6.556;2023-11-19T12:02:59;12.20;99.90
51908;DHT22;39320;53.214;6.556;2023-11-19T12:05:25;12.20;99.90
51908;DHT22;39320;53.214;6.556;2023-11-19T12:08:01;12.10;99.90
51908;DHT22;39320;53.214;6.556;2023-11-19T12:10:34;12.10;99.90
51908;DHT22;39320;53.214;6.556;2023-11-19T12:13:05;12.00;99.90
51908;DHT22;39320;53.214;6.556;2023-11-19T12:18:28;12.10;99.90
51908;DHT22;39320;53.214;6.556;2023-11-19T12:20:59;12.20;99.90
51908;DHT22;39320;53.214;6.556;2023-11-19T12:23:29;12.20;99.90
51908;DHT22;39320;53.214;6.556;2023-11-19T12:25:56;12.20;99.90
51908;DHT22;39320;53.214;6.556;2023-11-19T12:28:22;12.30;99.90
51908;DHT22;39320;53.214;6.556;2023-11-19T12:30:50;12.30;99.90
51908;DHT22;39320;53.214;6.556;2023-11-19T12:33:16;12.40;99.90
51908;DHT22;39320;53.214;6.556;2023-11-19T12:35:44;12.50;99.90
51908;DHT22;39320;53.214;6.556;2023-11-19T12:38:20;12.60;99.90
51908;DHT22;39320;53.214;6.556;2023-11-19T12:41:09;12.70;99.90
51908;DHT22;39320;53.214;6.556;2023-11-19T12:43:39;12.70;99.90
51908;DHT22;39320;53.214;6.556;2023-11-19T12:46:21;12.70;99.90
51908;DHT22;39320;53.214;6.556;2023-11-19T12:48:48;12.70;99.90
51908;DHT22;39320;53.214;6.556;2023-11-19T12:51:14;12.70;99.90
51908;DHT22;39320;53.214;6.556;2023-11-19T12:53:53;12.60;99.90
51908;DHT22;39320;53.214;6.556;2023-11-19T12:56:24;12.60;99.90
51908;DHT22;39320;53.214;6.556;2023-11-19T12:58:50;12.60;99.90
51908;DHT22;39320;53.214;6.556;2023-11-19T13:01:20;12.50;99.90
51908;DHT22;39320;53.214;6.556;2023-11-19T13:03:46;12.60;99.90
51908;DHT22;39320;53.214;6.556;2023-11-19T13:06:14;12.50;99.90
51908;DHT22;39320;53.214;6.556;2023-11-19T13:08:47;12.50;99.90
51908;DHT22;39320;53.214;6.556;2023-11-19T13:11:35;12.50;99.90
51908;DHT22;39320;53.214;6.556;2023-11-19T13:14:03;12.40;99.90
51908;DHT22;39320;53.214;6.556;2023-11-19T13:16:36;12.40;99.90
51908;DHT22;39320;53.214;6.556;2023-11-19T13:19:02;12.50;99.90
51908;DHT22;39320;53.214;6.556;2023-11-19T13:21:28;12.40;99.90
51908;DHT22;39320;53.214;6.556;2023-11-19T13:23:55;12.40;99.90
51908;DHT22;39320;53.214;6.556;2023-11-19T13:26:21;12.40;99.90
51908;DHT22;39320;53.214;6.556;2023-11-19T13:28:47;12.40;99.90
51908;DHT22;39320;53.214;6.556;2023-11-19T13:31:13;12.40;99.90
51908;DHT22;39320;53.214;6.556;2023-11-19T13:33:39;12.40;99.90
51908;DHT22;39320;53.214;6.556;2023-11-19T13:36:05;12.40;99.90
51908;DHT22;39320;53.214;6.556;2023-11-19T13:38:33;12.30;99.90
51908;DHT22;39320;53.214;6.556;2023-11-19T13:41:01;12.30;99.90
51908;DHT22;39320;53.214;6.556;2023-11-19T13:43:27;12.40;99.90
51908;DHT22;39320;53.214;6.556;2023-11-19T13:45:56;12.40;99.90
51908;DHT22;39320;53.214;6.556;2023-11-19T13:48:23;12.40;99.90
51908;DHT22;39320;53.214;6.556;2023-11-19T13:50:49;12.30;99.90
51908;DHT22;39320;53.214;6.556;2023-11-19T13:53:17;12.40;99.90
51908;DHT22;39320;53.214;6.556;2023-11-19T13:55:46;12.40;99.90
51908;DHT22;39320;53.214;6.556;2023-11-19T13:58:11;12.30;99.90
51908;DHT22;39320;53.214;6.556;2023-11-19T14:00:37;12.30;99.90
51908;DHT22;39320;53.214;6.556;2023-11-19T14:03:03;12.40;99.90
51908;DHT22;39320;53.214;6.556;2023-11-19T14:05:29;12.30;99.90
51908;DHT22;39320;53.214;6.556;2023-11-19T14:07:55;12.30;99.90
51908;DHT22;39320;53.214;6.556;2023-11-19T14:10:22;12.30;99.90
51908;DHT22;39320;53.214;6.556;2023-11-19T14:12:48;12.30;99.90
51908;DHT22;39320;53.214;6.556;2023-11-19T14:15:15;12.30;99.90
51908;DHT22;39320;53.214;6.556;2023-11-19T14:17:44;12.30;99.90
51908;DHT22;39320;53.214;6.556;2023-11-19T14:20:10;12.30;99.90
51908;DHT22;39320;53.214;6.556;2023-11-19T14:22:41;12.20;99.90
51908;DHT22;39320;53.214;6.556;2023-11-19T14:25:08;12.30;99.90
51908;DHT22;39320;53.214;6.556;2023-11-19T14:27:39;12.20;99.90
51908;DHT22;39320;53.214;6.556;2023-11-19T14:30:06;12.30;99.90
51908;DHT22;39320;53.214;6.556;2023-11-19T14:32:32;12.30;99.90
51908;DHT22;39320;53.214;6.556;2023-11-19T14:34:58;12.20;99.90
51908;DHT22;39320;53.214;6.556;2023-11-19T14:37:24;12.20;99.90
51908;DHT22;39320;53.214;6.556;2023-11-19T14:39:50;12.10;99.90
51908;DHT22;39320;53.214;6.556;2023-11-19T14:42:19;12.10;99.90
51908;DHT22;39320;53.214;6.556;2023-11-19T14:44:44;12.10;99.90
51908;DHT22;39320;53.214;6.556;2023-11-19T14:47:10;12.00;99.90
51908;DHT22;39320;53.214;6.556;2023-11-19T14:49:36;12.00;99.90
51908;DHT22;39320;53.214;6.556;2023-11-19T14:52:05;12.00;99.90
51908;DHT22;39320;53.214;6.556;2023-11-19T14:54:30;12.10;99.90
51908;DHT22;39320;53.214;6.556;2023-11-19T14:56:56;12.00;99.90
51908;DHT22;39320;53.214;6.556;2023-11-19T14:59:22;12.00;99.90
51908;DHT22;39320;53.214;6.556;2023-11-19T15:01:48;12.00;99.90
51908;DHT22;39320;53.214;6.556;2023-11-19T15:04:14;12.00;99.90
51908;DHT22;39320;53.214;6.556;2023-11-19T15:06:41;11.90;99.90
51908;DHT22;39320;53.214;6.556;2023-11-19T15:09:07;11.90;99.90
51908;DHT22;39320;53.214;6.556;2023-11-19T15:11:33;11.90;99.90
51908;DHT22;39320;53.214;6.556;2023-11-19T15:13:59;11.50;99.90
51908;DHT22;39320;53.214;6.556;2023-11-19T15:16:25;11.80;99.90
51908;DHT22;39320;53.214;6.556;2023-11-19T15:18:59;11.80;99.90
51908;DHT22;39320;53.214;6.556;2023-11-19T15:21:28;11.80;99.90
51908;DHT22;39320;53.214;6.556;2023-11-19T15:23:55;11.80;99.90
51908;DHT22;39320;53.214;6.556;2023-11-19T15:26:22;11.80;99.90
51908;DHT22;39320;53.214;6.556;2023-11-19T15:28:47;11.90;99.90
51908;DHT22;39320;53.214;6.556;2023-11-19T15:31:13;11.90;99.90
51908;DHT22;39320;53.214;6.556;2023-11-19T15:33:42;11.90;99.90
51908;DHT22;39320;53.214;6.556;2023-11-19T15:36:08;11.90;99.90
51908;DHT22;39320;53.214;6.556;2023-11-19T15:38:34;11.90;99.90
51908;DHT22;39320;53.214;6.556;2023-11-19T15:41:00;11.90;99.90
51908;DHT22;39320;53.214;6.556;2023-11-19T15:43:27;12.00;99.90
51908;DHT22;39320;53.214;6.556;2023-11-19T15:45:54;12.00;99.90
51908;DHT22;39320;53.214;6.556;2023-11-19T15:48:20;12.00;99.90
51908;DHT22;39320;53.214;6.556;2023-11-19T15:50:46;12.00;99.90
51908;DHT22;39320;53.214;6.556;2023-11-19T15:53:12;12.00;99.90
51908;DHT22;39320;53.214;6.556;2023-11-19T15:55:38;12.00;99.90